Time;durP1;ratioP1;P1;durP2;ratioP2;P2;SDS_P1;SDS_P2;PMS_P1;PMS_P2;Temp;Humidity;BMP_temperature;BMP_pressure;BME280_temperature;BME280_humidity;BME280_pressure;Samples;Min_cycle;Max_cycle;Signal;HPM_P1;HPM_P2
2022/02/21 00:00:17;;;;;;;4.10;3.80;;;;;;;;;;5020014;28;20029;-60
2022/02/21 00:02:45;;;;;;;4.88;4.32;;;;;;;;;;5017101;28;20099;-59
2022/02/21 00:05:14;;;;;;;4.22;3.92;;;;;;;;;;5015617;28;20044;-59
2022/02/21 00:07:40;;;;;;;3.75;3.45;;;;;;;;;;5015438;28;20432;-60
2022/02/21 00:10:08;;;;;;;3.78;3.47;;;;;;;;;;5014567;28;20034;-60
2022/02/21 00:12:34;;;;;;;4.30;3.90;;;;;;;;;;5012290;28;20096;-60
2022/02/21 00:14:59;;;;;;;7.22;3.80;;;;;;;;;;5014529;28;20037;-60
2022/02/21 00:17:24;;;;;;;4.53;4.13;;;;;;;;;;5015775;28;20336;-59
2022/02/21 00:19:50;;;;;;;3.80;3.50;;;;;;;;;;5014424;28;20103;-57
2022/02/21 00:22:15;;;;;;;3.88;3.47;;;;;;;;;;5014752;28;20068;-60
2022/02/21 00:24:40;;;;;;;5.53;5.13;;;;;;;;;;5015728;28;20047;-59
2022/02/21 00:27:06;;;;;;;4.05;3.75;;;;;;;;;;5013926;28;20045;-60
2022/02/21 00:29:31;;;;;;;3.95;3.65;;;;;;;;;;5016205;28;20029;-59
2022/02/21 00:31:57;;;;;;;4.35;3.97;;;;;;;;;;5016509;28;20044;-59
2022/02/21 00:34:22;;;;;;;4.70;4.30;;;;;;;;;;5015296;28;20053;-60
2022/02/21 00:36:47;;;;;;;4.43;4.03;;;;;;;;;;5014341;28;20040;-60
2022/02/21 00:39:13;;;;;;;4.00;3.70;;;;;;;;;;5014171;28;20059;-60
2022/02/21 00:41:39;;;;;;;4.25;3.85;;;;;;;;;;5013210;28;20048;-59
2022/02/21 00:44:05;;;;;;;6.05;4.18;;;;;;;;;;5016238;28;20034;-60
2022/02/21 00:46:30;;;;;;;3.97;3.60;;;;;;;;;;5018059;28;20056;-60
2022/02/21 00:48:55;;;;;;;3.63;3.30;;;;;;;;;;5020486;28;20092;-59
2022/02/21 00:51:21;;;;;;;4.13;3.72;;;;;;;;;;5021378;28;20454;-59
2022/02/21 00:53:46;;;;;;;3.45;3.15;;;;;;;;;;5022778;28;20033;-59
2022/02/21 00:56:12;;;;;;;3.80;3.50;;;;;;;;;;5022550;28;20030;-59
2022/02/21 00:58:37;;;;;;;3.88;3.58;;;;;;;;;;5020075;28;20187;-59
2022/02/21 01:01:02;;;;;;;4.05;3.75;;;;;;;;;;5019843;28;20037;-60
2022/02/21 01:03:28;;;;;;;3.63;3.33;;;;;;;;;;5019826;28;20114;-59
2022/02/21 01:05:53;;;;;;;3.53;3.22;;;;;;;;;;5024635;28;20048;-60
2022/02/21 01:08:19;;;;;;;3.95;3.60;;;;;;;;;;5020858;28;20037;-60
2022/02/21 01:10:44;;;;;;;3.55;3.25;;;;;;;;;;5018826;28;20025;-59
2022/02/21 01:13:10;;;;;;;3.75;3.45;;;;;;;;;;5018840;28;20442;-60
2022/02/21 01:15:35;;;;;;;4.68;3.55;;;;;;;;;;5017680;28;20030;-59
2022/02/21 01:18:01;;;;;;;4.07;3.78;;;;;;;;;;5019205;28;20248;-60
2022/02/21 01:20:27;;;;;;;3.95;3.65;;;;;;;;;;5017987;28;20042;-59
2022/02/21 01:22:52;;;;;;;4.38;3.97;;;;;;;;;;5018081;28;20033;-59
2022/02/21 01:25:18;;;;;;;3.53;3.22;;;;;;;;;;5020241;28;20550;-59
2022/02/21 01:27:44;;;;;;;4.10;3.80;;;;;;;;;;5021257;28;20625;-59
2022/02/21 01:30:11;;;;;;;4.35;3.95;;;;;;;;;;5023389;28;20052;-59
2022/02/21 01:32:36;;;;;;;4.68;3.60;;;;;;;;;;5021483;28;20033;-59
2022/02/21 01:35:03;;;;;;;4.35;3.95;;;;;;;;;;5020902;28;20444;-60
2022/02/21 01:37:28;;;;;;;3.83;3.53;;;;;;;;;;5019609;28;20328;-58
2022/02/21 01:39:54;;;;;;;4.60;4.20;;;;;;;;;;5021537;28;20021;-58
2022/02/21 01:42:19;;;;;;;4.72;4.32;;;;;;;;;;5018114;28;20591;-60
2022/02/21 01:44:47;;;;;;;50.42;47.28;;;;;;;;;;5017733;28;20467;-59
2022/02/21 01:47:15;;;;;;;14.38;5.18;;;;;;;;;;5015218;28;20033;-57
2022/02/21 01:49:41;;;;;;;4.93;4.53;;;;;;;;;;5020314;28;20060;-57
2022/02/21 01:52:07;;;;;;;5.85;5.22;;;;;;;;;;5022312;28;20037;-59
2022/02/21 01:54:34;;;;;;;5.30;4.90;;;;;;;;;;5018452;28;20041;-57
2022/02/21 01:57:00;;;;;;;5.22;4.75;;;;;;;;;;5018804;28;20087;-57
2022/02/21 01:59:26;;;;;;;4.00;3.70;;;;;;;;;;5021420;28;20131;-59
2022/02/21 02:01:52;;;;;;;4.10;3.80;;;;;;;;;;5020118;28;20046;-57
2022/02/21 02:04:19;;;;;;;3.92;3.63;;;;;;;;;;5019276;28;20033;-57
2022/02/21 02:06:46;;;;;;;3.92;3.53;;;;;;;;;;5020607;28;20467;-60
2022/02/21 02:09:12;;;;;;;3.90;3.60;;;;;;;;;;5019873;28;20375;-60
2022/02/21 02:11:37;;;;;;;4.07;3.75;;;;;;;;;;5018725;28;20041;-59
2022/02/21 02:14:03;;;;;;;3.80;3.50;;;;;;;;;;5021160;28;20103;-59
2022/02/21 02:16:29;;;;;;;3.88;3.58;;;;;;;;;;5013907;28;20096;-59
2022/02/21 02:18:55;;;;;;;5.10;3.88;;;;;;;;;;5020489;28;20037;-59
2022/02/21 02:21:23;;;;;;;3.67;3.38;;;;;;;;;;5019502;28;20398;-59
2022/02/21 02:23:50;;;;;;;5.50;3.53;;;;;;;;;;5019344;28;20112;-59
2022/02/21 02:26:17;;;;;;;4.07;3.78;;;;;;;;;;5019322;28;20037;-58
2022/02/21 02:28:45;;;;;;;3.80;3.50;;;;;;;;;;5019272;28;20041;-59
2022/02/21 02:31:10;;;;;;;3.97;3.67;;;;;;;;;;5018747;28;20040;-59
2022/02/21 02:33:37;;;;;;;3.83;3.53;;;;;;;;;;5019231;28;20041;-59
2022/02/21 02:36:06;;;;;;;3.55;3.25;;;;;;;;;;5019798;28;20132;-59
2022/02/21 02:38:31;;;;;;;3.38;3.08;;;;;;;;;;5021060;28;20108;-59
2022/02/21 02:40:57;;;;;;;3.40;3.10;;;;;;;;;;5019854;28;20121;-59
2022/02/21 02:43:23;;;;;;;3.55;3.25;;;;;;;;;;5016822;28;20048;-59
2022/02/21 02:45:48;;;;;;;9.38;3.40;;;;;;;;;;5019309;28;20060;-59
2022/02/21 02:48:13;;;;;;;3.38;3.08;;;;;;;;;;5016383;28;20491;-59
2022/02/21 02:50:39;;;;;;;3.83;3.53;;;;;;;;;;5015321;28;20528;-59
2022/02/21 02:53:04;;;;;;;3.70;3.40;;;;;;;;;;5015181;28;20490;-59
2022/02/21 02:55:30;;;;;;;3.70;3.40;;;;;;;;;;5016717;28;20526;-58
2022/02/21 02:57:55;;;;;;;4.43;4.05;;;;;;;;;;5024309;28;20448;-58
2022/02/21 03:00:21;;;;;;;5.97;3.47;;;;;;;;;;5017448;28;20038;-59
2022/02/21 03:02:46;;;;;;;3.22;2.92;;;;;;;;;;5017679;28;20026;-59
2022/02/21 03:05:11;;;;;;;3.80;3.35;;;;;;;;;;5019190;28;20026;-58
2022/02/21 03:07:37;;;;;;;5.75;4.03;;;;;;;;;;5018078;28;20409;-59
2022/02/21 03:10:04;;;;;;;7.50;3.75;;;;;;;;;;5020215;28;20029;-59
2022/02/21 03:12:29;;;;;;;4.43;4.03;;;;;;;;;;5014324;28;20042;-59
2022/02/21 03:14:56;;;;;;;3.72;3.42;;;;;;;;;;5020591;28;20030;-60
2022/02/21 03:17:22;;;;;;;3.92;3.63;;;;;;;;;;5017703;28;20109;-58
2022/02/21 03:19:48;;;;;;;3.63;3.33;;;;;;;;;;5017772;28;20116;-59
2022/02/21 03:22:13;;;;;;;3.20;2.90;;;;;;;;;;5019938;28;20071;-58
2022/02/21 03:24:38;;;;;;;4.03;3.60;;;;;;;;;;5020696;28;20048;-58
2022/02/21 03:27:04;;;;;;;3.55;3.25;;;;;;;;;;5019533;28;20379;-58
2022/02/21 03:29:29;;;;;;;4.00;3.28;;;;;;;;;;5018823;28;20829;-58
2022/02/21 03:31:54;;;;;;;4.03;3.63;;;;;;;;;;5019276;28;20448;-58
2022/02/21 03:34:20;;;;;;;9.23;4.55;;;;;;;;;;5016697;28;20402;-59
2022/02/21 03:36:45;;;;;;;10.57;4.15;;;;;;;;;;5020146;28;20040;-58
2022/02/21 03:39:10;;;;;;;3.75;3.45;;;;;;;;;;5019798;28;20033;-58
2022/02/21 03:41:36;;;;;;;3.60;3.30;;;;;;;;;;5017617;28;20038;-58
2022/02/21 03:44:03;;;;;;;3.30;3.00;;;;;;;;;;5019243;28;20045;-58
2022/02/21 03:46:29;;;;;;;4.15;3.75;;;;;;;;;;5021713;28;20048;-59
2022/02/21 03:48:54;;;;;;;3.65;3.35;;;;;;;;;;5018727;28;20452;-59
2022/02/21 03:51:20;;;;;;;3.58;3.28;;;;;;;;;;5019233;28;20045;-59
2022/02/21 03:53:45;;;;;;;3.30;3.00;;;;;;;;;;5018271;28;20116;-60
2022/02/21 03:56:10;;;;;;;3.50;3.20;;;;;;;;;;5015905;28;20052;-59
2022/02/21 03:58:36;;;;;;;3.25;2.95;;;;;;;;;;5014381;28;20046;-58
2022/02/21 04:01:01;;;;;;;3.25;2.95;;;;;;;;;;5019521;28;20033;-58
2022/02/21 04:03:27;;;;;;;3.58;3.28;;;;;;;;;;5017621;28;20112;-58
2022/02/21 04:05:52;;;;;;;6.20;3.92;;;;;;;;;;5022208;28;20363;-58
2022/02/21 04:08:17;;;;;;;3.60;3.30;;;;;;;;;;5021872;28;20076;-58
2022/02/21 04:10:43;;;;;;;3.65;3.35;;;;;;;;;;5018957;28;20112;-58
2022/02/21 04:13:08;;;;;;;3.33;3.03;;;;;;;;;;5016288;28;20044;-58
2022/02/21 04:15:33;;;;;;;3.53;3.22;;;;;;;;;;5017800;28;20029;-58
2022/02/21 04:17:59;;;;;;;4.15;3.75;;;;;;;;;;5015768;28;20038;-58
2022/02/21 04:20:30;;;;;;;3.88;3.55;;;;;;;;;;5021260;28;20042;-58
2022/02/21 04:22:55;;;;;;;3.72;3.38;;;;;;;;;;5023923;28;20037;-59
2022/02/21 04:25:21;;;;;;;3.50;3.20;;;;;;;;;;5024003;28;20041;-60
2022/02/21 04:27:52;;;;;;;3.45;3.15;;;;;;;;;;5018282;28;20474;-59
2022/02/21 04:30:20;;;;;;;3.95;3.65;;;;;;;;;;5018090;28;20487;-59
2022/02/21 04:32:47;;;;;;;4.75;3.35;;;;;;;;;;5022295;28;20540;-58
2022/02/21 04:35:13;;;;;;;3.33;3.03;;;;;;;;;;5022365;28;20029;-58
2022/02/21 04:37:39;;;;;;;3.90;3.60;;;;;;;;;;5024572;28;20034;-58
2022/02/21 04:40:10;;;;;;;4.07;3.78;;;;;;;;;;5021886;28;20044;-58
2022/02/21 04:42:36;;;;;;;3.88;3.58;;;;;;;;;;5021955;28;20057;-58
2022/02/21 04:45:02;;;;;;;4.18;3.78;;;;;;;;;;5021090;28;20080;-56
2022/02/21 04:47:28;;;;;;;5.18;3.92;;;;;;;;;;5023409;28;20041;-56
2022/02/21 04:49:53;;;;;;;3.78;3.47;;;;;;;;;;5022631;28;20038;-57
2022/02/21 04:52:19;;;;;;;3.63;3.33;;;;;;;;;;5023672;28;20418;-57
2022/02/21 04:54:45;;;;;;;3.92;3.63;;;;;;;;;;5021021;28;20403;-57
2022/02/21 04:57:10;;;;;;;3.20;2.90;;;;;;;;;;5018856;28;20483;-58
2022/02/21 04:59:35;;;;;;;4.13;3.83;;;;;;;;;;5017789;28;20041;-58
2022/02/21 05:02:01;;;;;;;4.00;3.70;;;;;;;;;;5016532;28;20136;-57
2022/02/21 05:04:27;;;;;;;4.35;3.95;;;;;;;;;;5017535;28;20029;-57
2022/02/21 05:06:53;;;;;;;4.05;3.75;;;;;;;;;;5020120;28;20472;-57
2022/02/21 05:09:18;;;;;;;3.60;3.30;;;;;;;;;;5017609;28;20083;-57
2022/02/21 05:11:43;;;;;;;3.85;3.55;;;;;;;;;;5019427;28;20041;-57
2022/02/21 05:14:09;;;;;;;3.42;3.13;;;;;;;;;;5020228;28;20159;-57
2022/02/21 05:16:34;;;;;;;3.60;3.30;;;;;;;;;;5021619;28;20045;-57
2022/02/21 05:19:02;;;;;;;3.40;3.10;;;;;;;;;;5022254;28;20088;-57
2022/02/21 05:21:28;;;;;;;3.47;3.17;;;;;;;;;;5020441;28;20030;-57
2022/02/21 05:23:54;;;;;;;4.65;4.25;;;;;;;;;;5020586;28;20087;-56
2022/02/21 05:26:20;;;;;;;5.53;3.85;;;;;;;;;;5018482;28;20041;-57
2022/02/21 05:28:45;;;;;;;14.50;3.97;;;;;;;;;;5019047;28;20038;-57
2022/02/21 05:31:10;;;;;;;4.20;3.88;;;;;;;;;;5021654;28;20095;-57
2022/02/21 05:33:36;;;;;;;3.63;3.33;;;;;;;;;;5021090;28;20073;-57
2022/02/21 05:36:01;;;;;;;3.47;3.17;;;;;;;;;;5020530;28;20046;-57
2022/02/21 05:38:26;;;;;;;5.75;4.53;;;;;;;;;;5019974;28;20037;-57
2022/02/21 05:40:51;;;;;;;3.40;3.10;;;;;;;;;;5020552;28;20033;-57
2022/02/21 05:43:17;;;;;;;3.85;3.45;;;;;;;;;;5021663;28;20042;-57
2022/02/21 05:45:42;;;;;;;4.47;4.07;;;;;;;;;;5020489;28;20044;-57
2022/02/21 05:48:07;;;;;;;3.97;3.20;;;;;;;;;;5019092;28;20427;-57
2022/02/21 05:50:33;;;;;;;3.30;2.85;;;;;;;;;;5020273;28;20076;-57
2022/02/21 05:52:58;;;;;;;3.53;3.22;;;;;;;;;;5019946;28;20036;-57
2022/02/21 05:55:23;;;;;;;6.40;4.20;;;;;;;;;;5018667;28;20030;-56
2022/02/21 05:57:49;;;;;;;3.40;3.10;;;;;;;;;;5021596;28;20079;-56
2022/02/21 06:00:14;;;;;;;3.60;3.30;;;;;;;;;;5021645;28;20403;-57
2022/02/21 06:02:40;;;;;;;3.55;3.25;;;;;;;;;;5021897;28;20050;-57
2022/02/21 06:05:06;;;;;;;3.58;3.28;;;;;;;;;;5016334;28;20122;-57
2022/02/21 06:07:31;;;;;;;4.60;3.92;;;;;;;;;;5021487;28;20052;-57
2022/02/21 06:09:58;;;;;;;4.43;4.05;;;;;;;;;;5020889;28;20052;-57
2022/02/21 06:12:23;;;;;;;5.60;4.75;;;;;;;;;;5019596;28;20408;-57
2022/02/21 06:14:49;;;;;;;4.13;3.83;;;;;;;;;;5020382;28;20112;-56
2022/02/21 06:17:15;;;;;;;4.10;3.70;;;;;;;;;;5019418;28;20124;-57
2022/02/21 06:19:40;;;;;;;3.97;3.67;;;;;;;;;;5019092;28;20033;-57
2022/02/21 06:22:05;;;;;;;3.72;3.42;;;;;;;;;;5019707;28;20037;-57
2022/02/21 06:24:31;;;;;;;10.68;4.40;;;;;;;;;;5020562;28;20519;-56
2022/02/21 06:26:56;;;;;;;3.60;3.30;;;;;;;;;;5020862;28;20030;-57
2022/02/21 06:29:21;;;;;;;4.38;3.75;;;;;;;;;;5021034;28;20037;-56
2022/02/21 06:31:47;;;;;;;5.80;4.30;;;;;;;;;;5021598;28;20620;-57
2022/02/21 06:34:12;;;;;;;4.32;4.00;;;;;;;;;;5019954;28;20045;-57
2022/02/21 06:36:38;;;;;;;3.63;3.33;;;;;;;;;;5018144;28;20120;-56
2022/02/21 06:39:03;;;;;;;3.80;3.50;;;;;;;;;;5010561;28;20080;-56
2022/02/21 06:41:29;;;;;;;6.40;3.83;;;;;;;;;;5019188;28;20097;-56
2022/02/21 06:43:54;;;;;;;18.55;3.83;;;;;;;;;;5019498;28;20045;-57
2022/02/21 06:46:20;;;;;;;6.22;4.45;;;;;;;;;;5020415;28;20037;-56
2022/02/21 06:48:45;;;;;;;6.57;3.95;;;;;;;;;;5019543;28;20387;-56
2022/02/21 06:51:11;;;;;;;3.75;3.45;;;;;;;;;;5013942;28;20046;-57
2022/02/21 06:53:36;;;;;;;4.82;4.43;;;;;;;;;;5017632;28;20033;-57
2022/02/21 06:56:02;;;;;;;4.57;3.78;;;;;;;;;;5020686;28;20041;-57
2022/02/21 06:58:27;;;;;;;4.72;4.32;;;;;;;;;;5018281;28;20034;-57
2022/02/21 07:00:52;;;;;;;5.88;4.25;;;;;;;;;;5017404;28;20088;-57
2022/02/21 07:03:18;;;;;;;4.95;3.70;;;;;;;;;;5016763;28;20538;-57
2022/02/21 07:05:43;;;;;;;5.22;3.30;;;;;;;;;;5018460;28;20046;-57
2022/02/21 07:08:10;;;;;;;3.85;3.55;;;;;;;;;;5018556;28;20040;-57
2022/02/21 07:10:36;;;;;;;5.65;4.93;;;;;;;;;;5021462;28;20668;-58
2022/02/21 07:13:01;;;;;;;3.95;3.65;;;;;;;;;;5018946;28;20065;-57
2022/02/21 07:15:27;;;;;;;3.35;3.05;;;;;;;;;;5020111;28;20034;-57
2022/02/21 07:17:52;;;;;;;5.95;3.95;;;;;;;;;;5020847;28;20073;-58
2022/02/21 07:20:17;;;;;;;3.47;3.17;;;;;;;;;;5019451;28;20052;-59
2022/02/21 07:22:45;;;;;;;3.00;2.70;;;;;;;;;;5021698;28;20025;-58
2022/02/21 07:25:13;;;;;;;3.65;3.35;;;;;;;;;;5017100;28;20034;-59
2022/02/21 07:27:48;;;;;;;3.10;2.80;;;;;;;;;;5017547;28;20133;-58
2022/02/21 07:30:15;;;;;;;3.10;2.80;;;;;;;;;;5016443;28;20088;-58
2022/02/21 07:32:42;;;;;;;4.15;3.85;;;;;;;;;;5013499;28;20037;-58
2022/02/21 07:35:08;;;;;;;3.40;3.10;;;;;;;;;;5016057;28;20091;-58
2022/02/21 07:37:34;;;;;;;3.40;3.10;;;;;;;;;;5014667;28;20031;-58
2022/02/21 07:39:59;;;;;;;4.00;3.70;;;;;;;;;;5015356;28;20116;-58
2022/02/21 07:42:24;;;;;;;3.42;3.13;;;;;;;;;;5012501;28;20359;-58
2022/02/21 07:44:50;;;;;;;3.67;3.38;;;;;;;;;;5011090;28;20030;-58
2022/02/21 07:47:16;;;;;;;3.45;3.15;;;;;;;;;;5012919;28;20074;-58
2022/02/21 07:49:42;;;;;;;6.05;3.13;;;;;;;;;;5018686;28;20474;-58
2022/02/21 07:52:07;;;;;;;3.78;3.47;;;;;;;;;;5013691;28;20030;-58
2022/02/21 07:54:32;;;;;;;3.05;2.75;;;;;;;;;;5018859;28;20093;-58
2022/02/21 07:57:00;;;;;;;3.47;3.17;;;;;;;;;;5023762;28;20042;-58
2022/02/21 07:59:26;;;;;;;3.78;3.47;;;;;;;;;;5020923;28;20155;-57
2022/02/21 08:01:51;;;;;;;4.00;3.70;;;;;;;;;;5017271;28;20148;-59
2022/02/21 08:04:17;;;;;;;4.40;4.00;;;;;;;;;;5017722;28;20045;-58
2022/02/21 08:06:42;;;;;;;3.97;3.67;;;;;;;;;;5015094;28;20045;-59
2022/02/21 08:09:08;;;;;;;4.75;4.05;;;;;;;;;;5016780;28;20034;-58
2022/02/21 08:11:34;;;;;;;3.78;3.47;;;;;;;;;;5018367;28;20030;-58
2022/02/21 08:13:59;;;;;;;3.40;3.10;;;;;;;;;;5021510;28;20144;-58
2022/02/21 08:16:25;;;;;;;3.92;3.63;;;;;;;;;;5017281;28;20033;-59
2022/02/21 08:18:50;;;;;;;3.58;3.28;;;;;;;;;;5016312;28;20025;-59
2022/02/21 08:21:16;;;;;;;3.45;3.15;;;;;;;;;;5018331;28;20095;-59
2022/02/21 08:23:42;;;;;;;4.95;3.20;;;;;;;;;;5022196;28;20030;-58
2022/02/21 08:26:08;;;;;;;4.07;3.47;;;;;;;;;;5017983;28;20042;-59
2022/02/21 08:28:33;;;;;;;4.40;4.00;;;;;;;;;;5020098;28;20047;-59
2022/02/21 08:30:59;;;;;;;4.97;3.80;;;;;;;;;;5019537;28;20059;-59
2022/02/21 08:33:24;;;;;;;4.60;3.58;;;;;;;;;;5016559;28;20121;-59
2022/02/21 08:35:50;;;;;;;5.90;3.67;;;;;;;;;;5017751;28;20042;-59
2022/02/21 08:38:15;;;;;;;7.55;4.55;;;;;;;;;;5019229;28;20037;-59
2022/02/21 08:40:42;;;;;;;3.88;3.58;;;;;;;;;;5019951;28;20387;-59
2022/02/21 08:43:07;;;;;;;3.45;3.15;;;;;;;;;;5018005;28;20133;-58
2022/02/21 08:45:33;;;;;;;3.65;3.35;;;;;;;;;;5017163;28;20105;-59
2022/02/21 08:47:59;;;;;;;3.28;2.97;;;;;;;;;;5014163;28;20128;-59
2022/02/21 08:50:24;;;;;;;3.30;3.00;;;;;;;;;;5021375;28;20044;-59
2022/02/21 08:52:50;;;;;;;3.03;2.72;;;;;;;;;;5019278;28;20029;-59
2022/02/21 08:55:16;;;;;;;3.83;3.53;;;;;;;;;;5019342;28;20038;-60
2022/02/21 08:57:42;;;;;;;3.17;2.88;;;;;;;;;;5018915;28;20148;-59
2022/02/21 09:00:09;;;;;;;3.40;3.10;;;;;;;;;;5022483;28;20060;-60
2022/02/21 09:02:35;;;;;;;3.95;3.55;;;;;;;;;;5017618;28;20061;-59
2022/02/21 09:05:01;;;;;;;3.55;3.25;;;;;;;;;;5021053;28;20060;-60
2022/02/21 09:07:26;;;;;;;6.20;3.50;;;;;;;;;;5020720;28;20463;-59
2022/02/21 09:09:52;;;;;;;3.72;3.42;;;;;;;;;;5019355;28;20786;-59
2022/02/21 09:12:17;;;;;;;3.75;3.45;;;;;;;;;;5019582;28;20037;-59
2022/02/21 09:14:47;;;;;;;3.10;2.80;;;;;;;;;;5021720;28;20057;-58
2022/02/21 09:17:14;;;;;;;4.13;3.70;;;;;;;;;;5018667;28;20075;-59
2022/02/21 09:19:39;;;;;;;6.60;4.18;;;;;;;;;;5019217;28;20049;-59
2022/02/21 09:22:05;;;;;;;5.75;3.63;;;;;;;;;;5022297;28;20095;-59
2022/02/21 09:24:30;;;;;;;4.45;3.38;;;;;;;;;;5020962;28;20041;-59
2022/02/21 09:26:56;;;;;;;5.03;3.85;;;;;;;;;;5013703;28;20039;-58
2022/02/21 09:29:23;;;;;;;5.25;4.32;;;;;;;;;;5018648;28;20045;-58
2022/02/21 09:31:48;;;;;;;3.85;3.55;;;;;;;;;;5023736;28;20359;-58
2022/02/21 09:34:14;;;;;;;4.10;3.70;;;;;;;;;;5021553;28;20120;-59
2022/02/21 09:36:39;;;;;;;5.05;4.13;;;;;;;;;;5020211;28;20471;-59
2022/02/21 09:39:05;;;;;;;4.97;4.53;;;;;;;;;;5019466;28;20553;-59
2022/02/21 09:41:30;;;;;;;10.23;4.20;;;;;;;;;;5019511;28;20053;-59
2022/02/21 09:43:57;;;;;;;4.45;4.05;;;;;;;;;;5021831;28;20136;-59
2022/02/21 09:46:29;;;;;;;4.20;3.90;;;;;;;;;;5020588;28;20033;-60
2022/02/21 09:48:56;;;;;;;4.15;3.85;;;;;;;;;;5020726;28;20076;-59
2022/02/21 09:51:22;;;;;;;4.07;3.78;;;;;;;;;;5020045;28;20034;-59
2022/02/21 09:53:49;;;;;;;4.20;3.85;;;;;;;;;;5017539;28;20044;-61
2022/02/21 09:56:14;;;;;;;4.35;3.95;;;;;;;;;;5021013;28;20038;-59
2022/02/21 09:58:39;;;;;;;4.70;4.30;;;;;;;;;;5006154;28;20030;-59
2022/02/21 10:01:05;;;;;;;11.52;4.40;;;;;;;;;;5019936;28;20037;-59
2022/02/21 10:03:36;;;;;;;4.30;3.90;;;;;;;;;;5017442;28;20048;-57
2022/02/21 10:06:24;;;;;;;4.72;4.32;;;;;;;;;;5020391;28;20046;-57
2022/02/21 10:09:03;;;;;;;4.05;3.70;;;;;;;;;;5021399;28;20026;-57
2022/02/21 10:11:32;;;;;;;4.35;4.05;;;;;;;;;;5019399;28;20045;-57
2022/02/21 10:13:59;;;;;;;5.05;4.65;;;;;;;;;;5017305;28;20045;-58
2022/02/21 10:16:25;;;;;;;10.15;4.75;;;;;;;;;;5014222;28;20029;-58
2022/02/21 10:19:15;;;;;;;4.78;4.38;;;;;;;;;;5016650;28;20359;-57
2022/02/21 10:22:01;;;;;;;4.70;4.30;;;;;;;;;;5018142;28;20057;-57
2022/02/21 10:24:47;;;;;;;4.38;4.07;;;;;;;;;;5021825;28;20045;-56
2022/02/21 10:27:13;;;;;;;4.90;4.40;;;;;;;;;;5016102;28;20387;-57
2022/02/21 10:29:49;;;;;;;5.00;4.60;;;;;;;;;;5019124;28;20052;-57
2022/02/21 10:32:16;;;;;;;5.63;5.22;;;;;;;;;;5021446;28;20100;-58
2022/02/21 10:34:45;;;;;;;6.65;6.20;;;;;;;;;;5019948;28;20737;-58
2022/02/21 10:37:25;;;;;;;6.40;6.00;;;;;;;;;;5058670;28;20390;-58
2022/02/21 10:40:11;;;;;;;6.40;6.00;;;;;;;;;;5053127;28;20056;-57
2022/02/21 10:42:37;;;;;;;5.57;5.18;;;;;;;;;;5051360;28;20112;-57
2022/02/21 10:45:15;;;;;;;4.85;4.45;;;;;;;;;;5053926;28;20573;-58
2022/02/21 10:48:00;;;;;;;4.82;4.43;;;;;;;;;;5049346;28;20033;-58
2022/02/21 10:50:27;;;;;;;4.28;3.88;;;;;;;;;;5052965;28;20200;-60
2022/02/21 10:52:52;;;;;;;4.65;4.25;;;;;;;;;;5053674;28;20063;-60
2022/02/21 10:55:17;;;;;;;4.95;4.55;;;;;;;;;;5051523;28;20408;-60
2022/02/21 10:57:45;;;;;;;5.10;4.70;;;;;;;;;;5052805;28;20505;-59
2022/02/21 11:00:12;;;;;;;4.60;4.20;;;;;;;;;;5053716;28;20044;-58
2022/02/21 11:02:40;;;;;;;10.95;5.47;;;;;;;;;;5052031;28;20086;-58
2022/02/21 11:05:09;;;;;;;5.07;4.68;;;;;;;;;;5052495;28;20032;-58
2022/02/21 11:07:35;;;;;;;4.88;4.47;;;;;;;;;;5053316;28;20033;-58
2022/02/21 11:10:03;;;;;;;4.50;4.15;;;;;;;;;;5056304;28;20032;-59
2022/02/21 11:12:34;;;;;;;7.80;7.22;;;;;;;;;;5052230;28;20449;-59
2022/02/21 11:15:01;;;;;;;4.75;4.35;;;;;;;;;;5052909;28;20063;-58
2022/02/21 11:17:29;;;;;;;4.75;4.35;;;;;;;;;;5051776;28;20336;-57
2022/02/21 11:19:54;;;;;;;5.22;4.82;;;;;;;;;;5052415;28;20336;-58
2022/02/21 11:22:21;;;;;;;4.63;4.22;;;;;;;;;;5052799;28;20041;-58
2022/02/21 11:24:55;;;;;;;6.07;4.45;;;;;;;;;;5050998;28;20036;-57
2022/02/21 11:27:30;;;;;;;5.05;4.65;;;;;;;;;;5046990;28;20037;-57
2022/02/21 11:30:18;;;;;;;4.57;4.18;;;;;;;;;;5046203;28;20075;-58
2022/02/21 11:33:12;;;;;;;4.85;4.45;;;;;;;;;;5044504;28;20188;-57
2022/02/21 11:36:08;;;;;;;5.70;5.20;;;;;;;;;;5042020;28;20031;-57
2022/02/21 11:38:36;;;;;;;4.93;4.53;;;;;;;;;;5048892;28;20032;-57
2022/02/21 11:41:05;;;;;;;4.93;4.53;;;;;;;;;;5045412;28;20036;-57
2022/02/21 11:43:36;;;;;;;4.80;4.40;;;;;;;;;;5042597;28;20030;-57
2022/02/21 11:46:07;;;;;;;5.13;4.72;;;;;;;;;;5038865;28;20709;-58
2022/02/21 11:48:57;;;;;;;4.20;3.90;;;;;;;;;;5029148;28;20041;-57
2022/02/21 11:51:34;;;;;;;4.57;4.20;;;;;;;;;;5027885;28;20041;-57
2022/02/21 11:54:11;;;;;;;4.72;4.32;;;;;;;;;;5034130;28;20040;-57
2022/02/21 11:56:49;;;;;;;4.80;4.40;;;;;;;;;;5042593;28;20028;-58
2022/02/21 11:59:28;;;;;;;4.20;3.90;;;;;;;;;;5037748;28;20048;-58
2022/02/21 12:02:05;;;;;;;6.15;4.63;;;;;;;;;;5035966;28;20467;-57
2022/02/21 12:04:48;;;;;;;4.45;4.05;;;;;;;;;;5035653;28;20522;-57
2022/02/21 12:07:26;;;;;;;4.60;4.20;;;;;;;;;;5037818;28;20021;-57
2022/02/21 12:10:12;;;;;;;4.60;4.20;;;;;;;;;;5035555;28;20037;-57
2022/02/21 12:12:58;;;;;;;4.03;3.72;;;;;;;;;;5035277;28;20025;-58
2022/02/21 12:15:31;;;;;;;8.05;4.97;;;;;;;;;;5036330;28;20447;-58
2022/02/21 12:18:26;;;;;;;4.10;3.80;;;;;;;;;;5041038;28;20041;-58
2022/02/21 12:21:14;;;;;;;4.60;4.20;;;;;;;;;;5033104;28;20037;-58
2022/02/21 12:23:52;;;;;;;4.63;4.22;;;;;;;;;;5034944;28;20033;-58
2022/02/21 12:26:17;;;;;;;4.80;4.40;;;;;;;;;;5038496;28;20044;-58
2022/02/21 12:28:44;;;;;;;4.75;3.70;;;;;;;;;;5038131;28;20037;-57
2022/02/21 12:31:23;;;;;;;5.05;4.65;;;;;;;;;;5038276;28;20034;-58
2022/02/21 12:33:54;;;;;;;4.00;3.67;;;;;;;;;;5035365;28;20052;-58
2022/02/21 12:36:21;;;;;;;3.78;3.47;;;;;;;;;;5040049;28;20041;-58
2022/02/21 12:38:51;;;;;;;7.25;5.15;;;;;;;;;;5037902;28;20053;-58
2022/02/21 12:41:17;;;;;;;4.03;3.72;;;;;;;;;;5037470;28;20041;-58
2022/02/21 12:43:59;;;;;;;4.30;4.00;;;;;;;;;;5037348;28;20510;-58
2022/02/21 12:46:27;;;;;;;3.70;3.40;;;;;;;;;;5020008;28;20459;-58
2022/02/21 12:48:53;;;;;;;3.97;3.67;;;;;;;;;;5031246;28;20088;-57
2022/02/21 12:51:21;;;;;;;4.53;4.13;;;;;;;;;;5036092;28;20041;-57
2022/02/21 12:53:58;;;;;;;3.97;3.60;;;;;;;;;;5036156;28;20039;-58
2022/02/21 12:56:25;;;;;;;4.20;3.90;;;;;;;;;;5035891;28;20091;-58
2022/02/21 12:58:51;;;;;;;3.70;3.40;;;;;;;;;;5037200;28;20075;-58
2022/02/21 13:01:18;;;;;;;4.50;4.15;;;;;;;;;;5035604;28;20467;-58
2022/02/21 13:03:55;;;;;;;4.18;3.88;;;;;;;;;;5036093;28;20108;-58
2022/02/21 13:06:21;;;;;;;5.47;4.43;;;;;;;;;;5036043;28;20024;-58
2022/02/21 13:08:47;;;;;;;3.70;3.40;;;;;;;;;;5034917;28;20041;-57
2022/02/21 13:11:25;;;;;;;9.40;4.10;;;;;;;;;;5037229;28;20060;-58
2022/02/21 13:13:50;;;;;;;3.70;3.40;;;;;;;;;;5036705;28;20033;-58
2022/02/21 13:16:16;;;;;;;4.10;3.80;;;;;;;;;;5035397;28;20051;-58
2022/02/21 13:18:54;;;;;;;5.05;4.65;;;;;;;;;;5034427;28;20033;-58
2022/02/21 13:21:35;;;;;;;7.38;3.78;;;;;;;;;;5036683;28;20037;-57
2022/02/21 13:24:03;;;;;;;3.93;3.63;;;;;;;;;;5038249;28;20034;-60
2022/02/21 13:26:40;;;;;;;4.10;3.70;;;;;;;;;;5037268;28;20489;-58
2022/02/21 13:29:06;;;;;;;3.35;3.05;;;;;;;;;;5039787;28;20031;-58
2022/02/21 13:31:41;;;;;;;3.63;3.33;;;;;;;;;;5033287;28;20033;-58
2022/02/21 13:34:07;;;;;;;4.75;4.35;;;;;;;;;;5033857;28;20198;-58
2022/02/21 13:36:32;;;;;;;3.90;3.60;;;;;;;;;;5033204;28;20120;-58
2022/02/21 13:38:57;;;;;;;3.67;3.38;;;;;;;;;;5035560;28;20382;-58
2022/02/21 13:41:23;;;;;;;4.00;3.60;;;;;;;;;;5033497;28;20076;-58
2022/02/21 13:43:48;;;;;;;3.40;3.10;;;;;;;;;;5036199;28;20379;-58
2022/02/21 13:46:14;;;;;;;3.40;3.10;;;;;;;;;;5033746;28;20481;-58
2022/02/21 13:48:45;;;;;;;4.65;3.80;;;;;;;;;;5034021;28;20799;-58
2022/02/21 13:51:19;;;;;;;3.33;3.03;;;;;;;;;;5035770;28;20037;-57
2022/02/21 13:53:45;;;;;;;3.30;3.00;;;;;;;;;;5033424;28;20416;-57
2022/02/21 13:56:18;;;;;;;5.68;4.50;;;;;;;;;;5029661;28;20041;-57
2022/02/21 13:58:49;;;;;;;3.90;3.60;;;;;;;;;;5034624;28;20537;-57
2022/02/21 14:01:24;;;;;;;4.53;4.13;;;;;;;;;;5032934;28;20045;-57
2022/02/21 14:03:53;;;;;;;3.53;3.22;;;;;;;;;;5033061;28;20049;-57
2022/02/21 14:06:33;;;;;;;3.53;3.22;;;;;;;;;;5034118;28;20037;-58
2022/02/21 14:08:59;;;;;;;4.15;3.75;;;;;;;;;;5031271;28;20240;-57
2022/02/21 14:11:35;;;;;;;3.25;2.95;;;;;;;;;;5027595;28;20043;-57
2022/02/21 14:14:06;;;;;;;4.03;3.58;;;;;;;;;;5028762;28;20116;-58
2022/02/21 14:16:32;;;;;;;5.88;3.60;;;;;;;;;;5025459;28;20032;-58
2022/02/21 14:18:58;;;;;;;3.70;3.40;;;;;;;;;;5027673;28;20045;-57
2022/02/21 14:21:23;;;;;;;3.90;3.60;;;;;;;;;;5027923;28;20037;-58
2022/02/21 14:23:49;;;;;;;5.25;4.15;;;;;;;;;;5025007;28;20038;-58
2022/02/21 14:26:15;;;;;;;4.00;3.70;;;;;;;;;;5025461;28;20624;-58
2022/02/21 14:28:40;;;;;;;6.05;4.53;;;;;;;;;;5040536;28;20128;-58
2022/02/21 14:31:06;;;;;;;4.30;3.90;;;;;;;;;;5025178;28;20136;-59
2022/02/21 14:33:31;;;;;;;4.00;3.70;;;;;;;;;;5026886;28;20133;-58
2022/02/21 14:35:57;;;;;;;4.40;4.00;;;;;;;;;;5028896;28;20776;-58
2022/02/21 14:38:25;;;;;;;4.60;4.20;;;;;;;;;;5032735;28;20037;-58
2022/02/21 14:40:53;;;;;;;4.95;4.55;;;;;;;;;;5029342;28;20114;-58
2022/02/21 14:43:20;;;;;;;6.78;3.60;;;;;;;;;;5025305;28;20108;-58
2022/02/21 14:45:45;;;;;;;5.72;4.15;;;;;;;;;;5031563;28;20528;-58